createdAt,value
2023-04-01T06:32:40.380Z,94.23
2023-04-01T06:33:40.478Z,94.18
2023-04-01T06:34:40.391Z,94.08
2023-04-01T06:35:40.529Z,94.08
2023-04-01T06:36:40.486Z,93.98
2023-04-01T06:37:40.572Z,93.98
2023-04-01T06:38:41.554Z,93.98
2023-04-01T06:39:41.481Z,93.57
2023-04-01T06:40:41.515Z,93.36
2023-04-01T06:41:41.441Z,93.05
2023-04-01T06:42:41.463Z,93.16
2023-04-01T06:43:42.081Z,93.16
2023-04-01T06:44:41.492Z,93.16
2023-04-01T06:45:41.858Z,93.16
2023-04-01T06:46:41.692Z,93.42
2023-04-01T06:47:42.509Z,92.91
2023-04-01T06:48:41.403Z,92.91
2023-04-01T06:49:41.659Z,93.21
2023-04-01T06:50:41.434Z,92.60
2023-04-01T06:51:45.213Z,92.91
2023-04-01T06:52:42.088Z,93.12
2023-04-01T06:53:41.371Z,92.40
2023-04-01T06:54:41.435Z,92.60
2023-04-01T06:55:41.415Z,92.40
2023-04-01T06:56:41.370Z,92.70
2023-04-01T06:57:41.394Z,92.40
2023-04-01T06:58:41.320Z,92.91
2023-04-01T06:59:41.293Z,92.29
2023-04-01T07:00:41.242Z,92.60
2023-04-01T07:01:41.557Z,92.91
2023-04-01T07:02:41.263Z,92.76
2023-04-01T07:03:41.252Z,92.50
2023-04-01T07:04:41.904Z,92.50
2023-04-01T07:05:41.331Z,92.80
2023-04-01T07:06:41.203Z,92.50
2023-04-01T07:07:41.214Z,92.29
2023-04-01T07:08:41.650Z,92.29
2023-04-01T07:09:41.169Z,92.80
2023-04-01T07:10:44.901Z,92.50
2023-04-01T07:11:41.161Z,92.50
2023-04-01T07:12:41.145Z,92.70
2023-04-01T07:13:41.099Z,92.70
2023-04-01T07:14:41.287Z,92.66
2023-04-01T07:15:41.082Z,92.55
2023-04-01T07:16:41.224Z,92.55
2023-04-01T07:17:41.797Z,92.80
2023-04-01T07:18:41.045Z,92.66
2023-04-01T07:19:41.251Z,92.76
2023-04-01T07:20:41.033Z,92.66
2023-04-01T07:21:41.001Z,92.25
2023-04-01T07:22:40.999Z,92.60
2023-04-01T07:23:40.980Z,92.35
2023-04-01T07:24:41.066Z,92.46
2023-04-01T07:25:40.972Z,92.25
2023-04-01T07:26:40.979Z,92.40
2023-04-01T07:27:41.001Z,92.86
2023-04-01T07:28:41.996Z,92.97
2023-04-01T07:29:41.195Z,92.35
2023-04-01T07:30:41.046Z,92.46
2023-04-01T07:31:41.647Z,92.66
2023-04-01T07:32:40.953Z,93.48
2023-04-01T07:33:41.004Z,92.97
2023-04-01T07:34:40.891Z,93.27
2023-04-01T07:35:40.945Z,92.97
2023-04-01T07:36:40.910Z,92.86
2023-04-01T07:37:40.846Z,92.76
2023-04-01T07:38:41.054Z,92.46
2023-04-01T07:39:40.906Z,92.46
2023-04-01T07:40:41.631Z,92.35
2023-04-01T07:41:40.850Z,92.25
2023-04-01T07:42:40.873Z,92.14
2023-04-01T07:43:40.825Z,92.21
2023-04-01T07:44:40.928Z,92.31
2023-04-01T07:45:40.913Z,92.41
2023-04-01T07:46:40.855Z,91.49
2023-04-01T07:47:40.792Z,91.38
2023-04-01T07:48:40.750Z,92.10
2023-04-01T07:49:40.841Z,91.38
2023-04-01T07:50:40.756Z,91.38
2023-04-01T07:51:40.725Z,91.38
2023-04-01T07:52:40.740Z,91.08
2023-04-01T07:53:40.717Z,91.24
2023-04-01T07:54:40.802Z,91.14
2023-04-01T07:55:40.672Z,91.75
2023-04-01T07:56:40.681Z,91.44
2023-04-01T07:57:40.724Z,91.28
2023-04-01T07:58:40.649Z,91.14
2023-04-01T07:59:40.675Z,90.93
2023-04-01T08:00:40.702Z,91.24
2023-04-01T08:01:40.604Z,91.44
2023-04-01T08:02:40.810Z,91.14
2023-04-01T08:03:40.782Z,90.62
2023-04-01T08:04:40.661Z,90.83
2023-04-01T08:05:40.590Z,90.48
2023-04-01T08:06:40.601Z,90.83
2023-04-01T08:07:40.587Z,90.69
2023-04-01T08:08:40.625Z,90.58
2023-04-01T08:09:40.604Z,90.48
2023-04-01T08:10:40.858Z,90.58
2023-04-01T08:11:41.852Z,89.97
2023-04-01T08:12:40.538Z,89.66
2023-04-01T08:13:40.525Z,90.28
2023-04-01T08:14:40.512Z,89.45
2023-04-01T08:15:40.488Z,89.87
2023-04-01T08:16:40.624Z,89.45
2023-04-01T08:17:40.485Z,89.56
2023-04-01T08:18:40.529Z,89.04
2023-04-01T08:19:40.500Z,89.31
2023-04-01T08:20:40.461Z,89.25
2023-04-01T08:21:40.449Z,89.87
2023-04-01T08:22:40.406Z,89.76
2023-04-01T08:23:40.393Z,89.56
2023-04-01T08:24:46.990Z,89.66
2023-04-01T08:25:42.459Z,90.17
2023-04-01T08:26:41.393Z,90.17
2023-04-01T08:27:40.365Z,89.36
2023-04-01T08:28:40.336Z,89.45
2023-04-01T08:29:40.310Z,89.45
2023-04-01T08:30:40.391Z,89.31
2023-04-01T08:31:40.407Z,89.42
2023-04-01T08:32:40.342Z,89.21
2023-04-01T08:33:40.316Z,89.56
2023-04-01T08:34:40.322Z,89.83
2023-04-01T08:35:40.644Z,89.42
2023-04-01T08:36:40.278Z,89.62
2023-04-01T08:37:40.245Z,89.72
2023-04-01T08:38:40.457Z,89.62
2023-04-01T08:39:40.288Z,89.36
2023-04-01T08:40:40.214Z,89.31
2023-04-01T08:41:40.246Z,89.42
2023-04-01T08:42:40.371Z,89.72
2023-04-01T08:43:40.175Z,89.45
2023-04-01T08:44:40.294Z,89.31
2023-04-01T08:45:40.260Z,89.62
2023-04-01T08:46:40.150Z,90.03
2023-04-01T08:47:40.188Z,89.83
2023-04-01T08:48:40.182Z,89.83
2023-04-01T08:49:40.254Z,89.21
2023-04-01T08:50:40.145Z,89.11
2023-04-01T08:51:40.157Z,89.42
2023-04-01T08:52:40.135Z,89.31
2023-04-01T08:53:40.156Z,89.06
2023-04-01T08:54:40.135Z,88.90
2023-04-01T08:55:40.092Z,88.70
2023-04-01T08:56:40.121Z,89.37
2023-04-01T08:57:40.106Z,89.68
2023-04-01T08:58:40.077Z,88.51
2023-04-01T08:59:40.031Z,88.56
2023-04-01T09:00:40.037Z,89.06
2023-04-01T09:01:40.076Z,89.64
2023-04-01T09:02:40.082Z,88.96
2023-04-01T09:03:40.085Z,89.37
2023-04-01T09:04:40.043Z,89.89
2023-04-01T09:05:39.959Z,89.89
2023-04-01T09:06:39.972Z,89.06
2023-04-01T09:07:39.995Z,89.33
2023-04-01T09:08:40.055Z,89.17
2023-04-01T09:09:39.953Z,89.06
2023-04-01T09:10:39.937Z,89.47
2023-04-01T09:11:40.041Z,89.33
2023-04-01T09:12:39.904Z,88.71
2023-04-01T09:13:39.893Z,89.03
2023-04-01T09:14:39.918Z,89.37
2023-04-01T09:15:39.906Z,89.43
2023-04-01T09:16:39.884Z,89.06
2023-04-01T09:17:39.991Z,89.37
2023-04-01T09:18:39.831Z,89.06
2023-04-01T09:19:39.890Z,89.37
2023-04-01T09:20:39.869Z,88.76
2023-04-01T09:21:39.829Z,88.76
2023-04-01T09:22:39.927Z,89.03
2023-04-01T09:23:39.814Z,88.76
2023-04-01T09:24:39.878Z,88.20
2023-04-01T09:25:39.825Z,87.84
2023-04-01T09:26:39.814Z,87.63
2023-04-01T09:27:39.826Z,88.31
2023-04-01T09:28:39.813Z,88.00
2023-04-01T09:29:39.811Z,88.62
2023-04-01T09:30:39.780Z,88.92
2023-04-01T09:31:39.761Z,87.90
2023-04-01T09:32:39.728Z,87.90
2023-04-01T09:33:39.730Z,87.70
2023-04-01T09:34:39.723Z,88.20
2023-04-01T09:35:39.812Z,87.70
2023-04-01T09:36:39.654Z,87.85
2023-04-01T09:37:39.689Z,86.43
2023-04-01T09:38:39.698Z,86.43
2023-04-01T09:39:39.716Z,86.73
2023-04-01T09:40:40.553Z,86.59
2023-04-01T09:41:39.621Z,86.73
2023-04-01T09:42:39.796Z,87.24
2023-04-01T09:43:39.599Z,86.94
2023-04-01T09:44:40.440Z,87.85
2023-04-01T09:45:39.709Z,87.04
2023-04-01T09:46:39.633Z,87.51
2023-04-01T09:47:39.647Z,88.53
2023-04-01T09:48:39.589Z,87.00
2023-04-01T09:49:39.595Z,87.20
2023-04-01T09:50:39.574Z,85.88
2023-04-01T09:51:39.566Z,85.57
2023-04-01T09:52:39.619Z,87.00
2023-04-01T09:53:39.503Z,87.20
2023-04-01T09:54:39.538Z,86.55
2023-04-01T09:55:39.479Z,87.26
2023-04-01T09:56:39.534Z,87.47
2023-04-01T09:57:39.566Z,86.55
2023-04-01T09:58:43.389Z,86.55
2023-04-01T09:59:39.547Z,86.90
2023-04-01T10:00:39.458Z,87.71
2023-04-01T10:01:39.537Z,88.12
2023-04-01T10:02:39.423Z,87.37
2023-04-01T10:03:39.429Z,87.61
2023-04-01T10:04:39.532Z,87.61
2023-04-01T10:05:39.548Z,87.77
2023-04-01T10:06:39.426Z,87.51
2023-04-01T10:07:39.382Z,87.30
2023-04-01T10:08:39.427Z,87.61
2023-04-01T10:09:39.361Z,87.41
2023-04-01T10:10:39.467Z,87.82
2023-04-01T10:11:39.375Z,87.37
2023-04-01T10:12:39.327Z,87.67
2023-04-01T10:13:39.308Z,88.08
2023-04-01T10:14:39.416Z,87.57
2023-04-01T10:15:39.446Z,86.96
2023-04-01T10:16:39.467Z,88.08
2023-04-01T10:17:39.429Z,88.18
2023-04-01T10:18:39.305Z,88.29
2023-04-01T10:19:39.305Z,87.32
2023-04-01T10:20:39.337Z,86.71
2023-04-01T10:21:39.262Z,86.20
2023-04-01T10:22:39.246Z,86.20
2023-04-01T10:23:39.206Z,85.49
2023-04-01T10:24:39.279Z,87.29
2023-04-01T10:25:39.263Z,85.86
2023-04-01T10:26:40.160Z,85.51
2023-04-01T10:27:39.260Z,85.04
2023-04-01T10:28:39.231Z,86.98
2023-04-01T10:29:39.167Z,85.55
2023-04-01T10:30:39.175Z,85.30
2023-04-01T10:31:39.322Z,85.35
2023-04-01T10:32:39.183Z,85.35
2023-04-01T10:33:39.152Z,85.65
2023-04-01T10:34:39.114Z,86.67
2023-04-01T10:35:39.196Z,86.02
2023-04-01T10:36:39.123Z,84.90
2023-04-01T10:37:39.194Z,85.35
2023-04-01T10:38:39.271Z,85.51
2023-04-01T10:42:44.599Z,85.59
2023-04-01T10:43:32.838Z,86.71
2023-04-01T10:44:32.870Z,87.38
2023-04-01T10:45:33.222Z,88.24
2023-04-01T10:46:32.960Z,88.82
2023-04-01T10:47:32.863Z,89.18
2023-04-01T10:48:32.760Z,87.90
2023-04-01T10:49:32.738Z,87.04
2023-04-01T10:50:32.756Z,87.70
2023-04-01T10:51:32.738Z,89.02
2023-04-01T10:52:32.758Z,89.39
2023-04-01T10:53:32.721Z,87.96
2023-04-01T10:54:32.684Z,88.06
2023-04-01T10:55:33.123Z,87.79
2023-04-01T10:56:32.664Z,88.82
2023-04-01T10:57:32.747Z,89.08
2023-04-01T10:58:33.822Z,88.78
2023-04-01T10:59:34.696Z,88.02
2023-04-01T11:00:33.973Z,88.06
2023-04-01T11:01:33.841Z,86.94
2023-04-01T11:02:33.878Z,86.12
2023-04-01T11:03:33.922Z,86.53
2023-04-01T11:04:33.857Z,87.14
2023-04-01T11:05:34.022Z,87.35
2023-04-01T11:06:33.774Z,87.04
2023-04-01T11:07:33.839Z,86.90
2023-04-01T11:08:33.732Z,86.29
2023-04-01T11:09:33.679Z,87.00
2023-04-01T11:10:34.657Z,85.51
2023-04-01T11:11:33.742Z,86.39
2023-04-01T11:12:33.709Z,86.73
2023-04-01T11:13:33.690Z,87.82
2023-04-01T11:14:33.632Z,86.80
2023-04-01T11:15:33.966Z,86.08
2023-04-01T11:16:33.774Z,86.08
2023-04-01T11:17:34.182Z,88.02
2023-04-01T11:18:33.609Z,85.41
2023-04-01T11:19:33.588Z,85.92
2023-04-01T11:20:33.696Z,87.24
2023-04-01T11:21:33.666Z,86.63
2023-04-01T11:22:33.605Z,86.43
2023-04-01T11:23:33.688Z,86.36
2023-04-01T11:24:33.799Z,86.16
2023-04-01T11:25:33.846Z,86.57
2023-04-01T11:26:33.602Z,87.29
2023-04-01T11:27:33.599Z,87.29
2023-04-01T11:28:33.660Z,86.88
2023-04-01T11:29:33.556Z,86.91
2023-04-01T11:30:33.541Z,87.73
2023-04-01T11:31:34.085Z,87.63
2023-04-01T11:32:33.516Z,88.24
2023-04-01T11:33:33.480Z,88.20
2023-04-01T11:34:33.537Z,88.04
2023-04-01T11:35:33.613Z,88.24
2023-04-01T11:36:33.534Z,88.41
2023-04-01T11:37:33.392Z,88.31
2023-04-01T11:38:33.428Z,88.71
2023-04-01T11:39:33.436Z,87.70
2023-04-01T11:40:33.466Z,87.32
2023-04-01T11:41:34.500Z,87.02
2023-04-01T11:42:33.371Z,87.47
2023-04-01T11:43:34.083Z,87.98
2023-04-01T11:44:34.713Z,89.20
2023-04-01T11:45:33.528Z,89.82
2023-04-01T11:46:33.426Z,90.64
2023-04-01T11:47:33.384Z,89.11
2023-04-01T11:48:33.309Z,89.25
2023-04-01T11:49:33.405Z,90.06
2023-04-01T11:50:33.344Z,89.76
2023-04-01T11:51:33.380Z,91.15
2023-04-01T11:52:33.316Z,91.76
2023-04-01T11:53:33.255Z,90.23
2023-04-01T11:54:33.324Z,90.02
2023-04-01T11:55:33.387Z,89.82
2023-04-01T11:56:33.258Z,89.61
2023-04-01T11:57:33.353Z,90.23
2023-04-01T11:58:33.264Z,90.19
2023-04-01T11:59:33.208Z,90.70
2023-04-01T12:00:33.788Z,90.59
2023-04-01T12:01:33.158Z,89.88
2023-04-01T12:02:33.242Z,90.59
2023-04-01T12:03:34.307Z,88.85
2023-04-01T12:04:33.253Z,88.18
2023-04-01T12:05:33.442Z,88.70
2023-04-01T12:06:33.145Z,90.53
2023-04-01T12:07:33.121Z,90.43
2023-04-01T12:08:33.207Z,90.23
2023-04-01T12:09:33.161Z,90.94
2023-04-01T12:10:34.836Z,91.25
2023-04-01T12:11:33.098Z,90.43
2023-04-01T12:12:33.136Z,90.84
2023-04-01T12:13:33.060Z,90.99
2023-04-01T12:14:33.039Z,90.58
2023-04-01T12:15:33.229Z,91.29
2023-04-01T12:16:33.144Z,92.32
2023-04-01T12:17:33.783Z,92.01
2023-04-01T12:18:32.989Z,91.86
2023-04-01T12:19:32.994Z,92.11
2023-04-01T12:20:32.994Z,92.42
2023-04-01T12:21:32.970Z,92.11
2023-04-01T12:22:33.944Z,92.47
2023-04-01T12:23:33.984Z,91.96
2023-04-01T12:24:32.964Z,92.27
2023-04-01T12:25:33.047Z,92.17
2023-04-01T12:26:33.034Z,92.32
2023-04-01T12:27:32.916Z,92.42
2023-04-01T12:28:32.902Z,92.72
2023-04-01T12:29:32.886Z,92.93
2023-04-01T12:30:32.954Z,92.62
2023-04-01T12:31:32.969Z,92.62
2023-04-01T12:32:32.929Z,92.42
2023-04-01T12:33:32.896Z,92.52
2023-04-01T12:34:32.855Z,92.72
2023-04-01T12:35:33.260Z,92.93
2023-04-01T12:36:32.830Z,92.72
2023-04-01T12:37:32.823Z,92.72
2023-04-01T12:38:32.857Z,92.87
2023-04-01T12:39:32.800Z,92.72
2023-04-01T12:40:34.131Z,93.13
2023-04-01T12:41:32.862Z,92.93
2023-04-01T12:42:32.941Z,93.19
2023-04-01T12:43:32.805Z,92.47
2023-04-01T12:44:32.768Z,93.24
2023-04-01T12:45:33.040Z,92.72
2023-04-01T12:46:32.817Z,92.58
2023-04-01T12:47:32.748Z,92.32
2023-04-01T12:48:32.720Z,92.01
2023-04-01T12:49:32.817Z,92.11
2023-04-01T12:50:32.705Z,92.01
2023-04-01T12:51:32.680Z,92.42
2023-04-01T12:52:32.726Z,91.19
2023-04-01T12:53:32.654Z,92.01
2023-04-01T12:54:32.660Z,92.47
2023-04-01T12:55:32.804Z,92.11
2023-04-01T12:56:32.684Z,92.32
2023-04-01T12:57:32.724Z,92.32
2023-04-01T12:58:32.650Z,92.21
2023-04-01T12:59:32.641Z,92.32
2023-04-01T13:00:32.599Z,92.11
2023-04-01T13:01:32.652Z,91.91
2023-04-01T13:02:32.614Z,92.42
2023-04-01T13:03:33.348Z,92.32
2023-04-01T13:04:32.550Z,92.32
2023-04-01T13:05:32.768Z,92.42
2023-04-01T13:06:32.579Z,92.01
2023-04-01T13:07:32.524Z,92.42
2023-04-01T13:08:32.521Z,92.32
2023-04-01T13:09:32.533Z,92.05
2023-04-01T13:10:32.677Z,92.25
2023-04-01T13:11:32.521Z,92.25
2023-04-01T13:12:32.507Z,91.74
2023-04-01T13:13:32.464Z,92.21
2023-04-01T13:14:32.522Z,92.36
2023-04-01T13:15:32.530Z,92.52
2023-04-01T13:16:32.441Z,92.32
2023-04-01T13:17:32.474Z,92.97
2023-04-01T13:18:32.399Z,92.32
2023-04-01T13:19:32.501Z,92.72
2023-04-01T13:20:32.709Z,92.83
2023-04-01T13:21:33.483Z,92.93
2023-04-01T13:22:32.373Z,92.37
2023-04-01T13:23:32.384Z,93.03
2023-04-01T13:24:32.363Z,92.83
2023-04-01T13:25:32.380Z,93.65
2023-04-01T13:26:32.413Z,94.42
2023-04-01T13:27:32.329Z,93.45
2023-04-01T13:28:32.426Z,92.99
2023-04-01T13:29:32.352Z,92.88
2023-04-01T13:30:32.769Z,92.84
2023-04-01T13:31:32.484Z,92.33
2023-04-01T13:32:43.469Z,92.43
2023-04-01T13:33:34.294Z,92.54
2023-04-01T13:34:32.295Z,92.33
2023-04-01T13:35:32.322Z,91.92
2023-04-01T13:36:32.278Z,91.31
2023-04-01T13:37:33.792Z,92.13
2023-04-01T13:38:32.723Z,92.23
2023-04-01T13:39:32.231Z,92.33
2023-04-01T13:40:32.487Z,91.92
2023-04-01T13:41:32.296Z,92.08
2023-04-01T13:42:32.203Z,92.19
2023-04-01T13:43:32.206Z,91.82
2023-04-01T13:44:32.163Z,91.78
2023-04-01T13:45:32.755Z,91.88
2023-04-01T13:46:32.295Z,91.88
2023-04-01T13:47:32.828Z,92.19
2023-04-01T13:48:32.182Z,92.69
2023-04-01T13:49:32.137Z,92.64
2023-04-01T13:50:32.403Z,92.29
2023-04-01T13:51:32.124Z,92.90
2023-04-01T13:52:32.144Z,92.59
2023-04-01T13:53:32.068Z,92.76
2023-04-01T13:54:32.760Z,92.59
2023-04-01T13:55:32.046Z,92.45
2023-04-01T13:56:32.105Z,91.94
2023-04-01T13:57:32.143Z,91.74
2023-04-01T13:58:32.075Z,92.04
2023-04-01T13:59:32.024Z,91.53
2023-04-01T14:00:32.210Z,91.08
2023-04-01T14:01:32.111Z,91.12
2023-04-01T14:02:32.008Z,91.74
2023-04-01T14:45:28.303Z,96.41
2023-04-01T14:46:29.484Z,96.36
2023-04-01T14:47:29.586Z,96.92
2023-04-01T14:48:30.473Z,96.26
2023-04-01T14:49:29.497Z,95.64
2023-04-01T14:50:29.371Z,96.05
2023-04-01T14:51:29.496Z,96.46
2023-04-01T14:52:29.631Z,95.85
2023-04-01T14:53:29.513Z,95.44
2023-04-01T14:54:29.296Z,95.64
2023-04-01T14:55:30.127Z,95.75
2023-04-01T14:56:31.480Z,95.28
2023-04-01T14:57:30.078Z,95.34
2023-04-01T14:58:29.392Z,95.23
2023-04-01T14:59:29.792Z,95.23
2023-04-01T15:00:30.658Z,95.44
2023-04-01T15:01:29.463Z,95.39
2023-04-01T15:02:29.345Z,95.29
2023-04-01T15:03:29.252Z,95.39
2023-04-01T15:04:29.456Z,95.19
2023-04-01T15:05:29.221Z,94.78
2023-04-01T15:06:29.206Z,94.68
2023-04-01T15:07:29.380Z,94.68
2023-04-01T15:08:29.297Z,94.98
2023-04-01T15:09:29.176Z,94.37
2023-04-01T15:10:29.143Z,94.32
2023-04-01T15:11:29.418Z,94.27
2023-04-01T15:12:29.118Z,94.37
2023-04-01T15:13:29.538Z,94.27
2023-04-01T15:14:30.113Z,94.48
2023-04-01T15:15:29.095Z,94.48
2023-04-01T15:16:30.121Z,94.78
2023-04-01T15:17:29.130Z,94.68
2023-04-01T15:18:29.312Z,93.15
2023-04-01T15:19:29.052Z,93.50
2023-04-01T15:20:29.107Z,93.19
2023-04-01T15:21:29.650Z,93.40
2023-04-01T15:22:29.096Z,93.09
2023-04-01T15:23:29.767Z,93.50
2023-04-01T15:24:29.170Z,93.70
2023-04-01T15:25:29.144Z,93.86
2023-04-01T15:26:29.267Z,93.25
2023-04-01T15:27:28.961Z,93.76
2023-04-01T15:28:28.996Z,93.15
2023-04-01T15:29:29.201Z,92.43
2023-04-01T15:30:28.954Z,92.94
2023-04-01T15:31:29.049Z,93.05
2023-04-01T15:32:29.979Z,92.64
2023-04-01T15:33:28.874Z,91.92
2023-04-01T15:34:29.029Z,91.66
2023-04-01T15:35:28.926Z,92.54
2023-04-01T15:36:28.953Z,92.54
2023-04-01T15:37:29.083Z,92.23
2023-04-01T15:38:28.895Z,92.23
2023-04-01T15:39:29.050Z,92.13
2023-04-01T15:40:28.984Z,92.02
2023-04-01T15:41:28.979Z,92.23
2023-04-01T15:42:28.878Z,92.02
2023-04-01T15:43:28.961Z,92.54
2023-04-01T15:44:29.692Z,91.82
2023-04-01T15:45:28.864Z,92.13
2023-04-01T15:46:28.894Z,92.94
2023-04-01T15:47:28.870Z,90.94
2023-04-01T15:48:28.866Z,90.43
2023-04-01T15:49:28.866Z,91.25
2023-04-01T15:50:28.962Z,90.94
2023-04-01T15:51:29.243Z,90.84
2023-04-01T15:52:28.841Z,92.37
2023-04-01T15:53:28.912Z,92.23
2023-04-01T15:54:28.735Z,92.84
2023-04-01T15:55:28.768Z,92.59
2023-04-01T15:56:28.983Z,92.23
2023-04-01T15:57:29.033Z,92.54
2023-04-01T15:58:28.792Z,92.58
2023-04-01T15:59:28.733Z,91.92
2023-04-01T16:00:28.935Z,92.33
2023-04-01T16:01:28.920Z,92.54
2023-04-01T16:02:30.691Z,92.68
2023-04-01T16:03:28.776Z,93.25
2023-04-01T16:04:28.684Z,93.15
2023-04-01T16:05:28.598Z,92.84
2023-04-01T16:06:28.682Z,92.84
2023-04-01T16:07:28.659Z,93.29
2023-04-01T16:08:28.564Z,93.50
2023-04-01T16:09:28.737Z,93.80
2023-04-01T16:10:28.696Z,93.80
2023-04-01T16:11:28.568Z,93.70
2023-04-01T16:12:28.877Z,94.32
2023-04-01T16:13:28.698Z,94.32
2023-04-01T16:14:28.589Z,93.80
2023-04-01T16:15:28.551Z,93.80
2023-04-01T16:16:28.756Z,93.60
2023-04-01T16:17:28.675Z,94.56
2023-04-01T16:18:28.460Z,94.46
2023-04-01T16:19:28.626Z,94.36
2023-04-01T16:20:28.409Z,95.18
2023-04-01T16:21:28.460Z,95.07
2023-04-01T16:22:28.452Z,94.82
2023-04-01T16:23:28.414Z,94.77
2023-04-01T16:24:28.380Z,95.28
2023-04-01T16:25:28.378Z,95.69
2023-04-01T16:26:28.370Z,95.69
2023-04-01T16:27:28.358Z,96.41
2023-04-01T16:28:29.079Z,96.30
2023-04-01T16:29:28.360Z,96.20
2023-04-01T16:30:28.297Z,96.30
2023-04-01T16:31:28.316Z,96.25
2023-04-01T16:32:28.300Z,96.46
2023-04-01T16:33:28.287Z,96.30
2023-04-01T16:34:28.274Z,96.10
2023-04-01T16:35:28.323Z,96.10
2023-04-01T16:36:28.318Z,96.30
2023-04-01T16:37:28.279Z,96.20
2023-04-01T16:38:28.254Z,96.10
2023-04-01T16:39:28.406Z,96.05
2023-04-01T16:40:28.287Z,96.26
2023-04-01T16:41:28.252Z,95.54
2023-04-01T16:42:29.112Z,95.28
2023-04-01T16:43:28.297Z,95.18
2023-04-01T16:44:28.224Z,95.38
2023-04-01T16:45:28.239Z,95.18
2023-04-01T16:46:28.247Z,95.07
2023-04-01T16:47:28.264Z,94.97
2023-04-01T16:48:28.206Z,95.07
2023-04-01T16:49:29.073Z,95.03
2023-04-01T16:50:28.613Z,94.82
2023-04-01T16:51:28.158Z,95.13
2023-04-01T16:52:28.171Z,94.73
2023-04-01T16:53:28.068Z,94.52
2023-04-01T16:54:28.104Z,94.62
2023-04-01T16:55:28.085Z,94.52
2023-04-01T16:56:28.120Z,94.27
2023-04-01T16:57:28.187Z,94.68
2023-04-01T16:58:28.181Z,93.76
2023-04-01T16:59:28.351Z,93.45
2023-04-01T17:00:28.073Z,93.45
2023-04-01T17:01:28.127Z,93.45
2023-04-01T17:02:28.176Z,93.66
2023-04-01T17:03:28.018Z,93.45
2023-04-01T17:04:28.040Z,93.35
2023-04-01T17:05:28.977Z,93.35
2023-04-01T17:06:29.399Z,92.94
2023-04-01T17:07:28.021Z,92.94
2023-04-01T17:08:28.115Z,93.05
2023-04-01T17:09:27.964Z,93.05
2023-04-01T17:10:28.051Z,93.35
2023-04-01T17:11:27.990Z,92.84
2023-04-01T17:12:28.003Z,92.94
2023-04-01T17:13:27.892Z,92.74
2023-04-01T17:14:27.933Z,93.45
2023-04-01T17:15:27.914Z,93.15
2023-04-01T17:16:27.963Z,92.84
2023-04-01T17:17:28.071Z,92.84
2023-04-01T17:18:27.903Z,92.94
2023-04-01T17:19:27.871Z,93.25
2023-04-01T17:20:27.845Z,93.15
2023-04-01T17:21:27.906Z,93.40
2023-04-01T17:22:28.660Z,93.60
2023-04-01T17:23:27.935Z,93.55
2023-04-01T17:24:28.439Z,93.66
2023-04-01T17:25:27.812Z,93.55
2023-04-01T17:26:27.742Z,93.55
2023-04-01T17:27:27.821Z,93.66
2023-04-01T17:28:27.917Z,93.55
2023-04-01T17:29:27.824Z,93.09
2023-04-01T17:30:27.801Z,93.09
2023-04-01T17:31:27.870Z,93.19
2023-04-01T17:32:27.794Z,93.65
2023-04-01T17:33:27.747Z,94.46
2023-04-01T17:34:27.742Z,94.32
2023-04-01T17:35:27.731Z,94.32
2023-04-01T17:36:28.636Z,94.42
2023-04-01T17:37:27.711Z,94.52
2023-04-01T17:38:27.764Z,94.42
2023-04-01T17:39:27.677Z,94.52
2023-04-01T17:40:27.686Z,94.62
2023-04-01T17:41:27.748Z,94.52
2023-04-01T17:42:27.680Z,94.52
2023-04-01T17:43:27.698Z,94.21
2023-04-01T17:44:27.597Z,93.70
2023-04-01T17:45:27.729Z,93.70
2023-04-01T17:46:27.663Z,93.60
2023-04-01T17:47:27.644Z,93.70
2023-04-01T17:48:27.584Z,93.60
2023-04-01T17:49:27.557Z,93.70
2023-04-01T17:50:27.647Z,93.60
2023-04-01T17:51:27.583Z,93.50
2023-04-01T17:52:27.670Z,93.50
2023-04-01T17:53:27.534Z,93.40
2023-04-01T17:54:27.533Z,93.40
2023-04-01T17:55:27.491Z,93.29
2023-04-01T17:56:27.491Z,93.44
2023-04-01T17:57:27.543Z,93.60
2023-04-01T17:58:27.502Z,93.54
2023-04-01T17:59:27.517Z,93.50
2023-04-01T18:00:30.139Z,93.60
2023-04-01T18:01:28.552Z,93.40
2023-04-01T18:02:27.620Z,93.09
2023-04-01T18:03:27.509Z,93.29
2023-04-01T18:04:28.153Z,93.24
2023-04-01T18:05:27.461Z,93.54
2023-04-01T18:06:27.401Z,93.40
2023-04-01T18:07:27.477Z,93.24
2023-04-01T18:08:27.424Z,93.40
2023-04-01T18:09:27.406Z,93.29
2023-04-01T18:10:27.397Z,93.44
2023-04-01T18:11:27.543Z,93.44
2023-04-01T18:12:27.406Z,93.74
2023-04-01T18:13:27.439Z,93.54
2023-04-01T18:14:27.359Z,93.33
2023-04-01T18:15:27.348Z,93.13
2023-04-01T18:16:27.433Z,93.24
2023-04-01T18:17:27.515Z,93.54
2023-04-01T18:18:27.454Z,93.65
2023-04-01T18:19:29.887Z,93.65
2023-04-01T18:20:28.192Z,93.74
2023-04-01T18:21:28.236Z,93.74
2023-04-01T18:27:23.224Z,94.46
2023-04-01T18:28:32.372Z,94.51
2023-04-01T18:29:24.900Z,94.67
2023-04-01T18:30:24.822Z,94.67
2023-04-01T18:33:49.712Z,94.77
2023-04-01T18:38:30.462Z,94.71
2023-04-01T18:39:42.005Z,94.71
2023-04-01T18:41:59.241Z,95.22
2023-04-01T18:43:05.623Z,95.02
2023-04-01T18:44:09.165Z,95.32
2023-04-01T18:46:30.380Z,94.81
2023-04-01T18:47:45.056Z,94.81
2023-04-01T18:48:41.469Z,94.81
2023-04-01T18:49:40.570Z,94.71
2023-04-01T18:52:26.594Z,95.37
2023-04-01T18:53:35.634Z,95.53
2023-04-01T18:54:35.768Z,95.06
2023-04-01T18:55:40.976Z,95.22
2023-04-01T18:58:00.844Z,95.02
2023-04-01T19:03:12.986Z,94.60
2023-04-01T19:07:22.129Z,94.75
2023-04-01T19:12:52.316Z,94.85
2023-04-01T19:16:31.898Z,95.17
2023-04-01T19:19:51.441Z,95.26
2023-04-01T19:22:53.261Z,95.37
2023-04-01T19:25:20.212Z,95.17
2023-04-01T19:28:21.911Z,95.37
2023-04-01T19:30:48.568Z,95.78
2023-04-01T19:31:58.494Z,95.37
2023-04-01T19:32:58.856Z,95.57
2023-04-01T19:33:48.569Z,95.37
2023-04-01T19:34:48.839Z,96.03
2023-04-01T19:35:57.389Z,96.13
2023-04-01T19:36:57.213Z,96.44
2023-04-01T19:39:41.345Z,96.84
2023-04-01T19:40:49.157Z,96.74
2023-04-01T19:41:41.683Z,96.95
2023-04-01T19:42:41.586Z,97.36
2023-04-01T19:48:38.795Z,97.36
2023-04-01T19:51:12.421Z,96.89
2023-04-01T19:52:27.690Z,97.05
2023-04-01T19:53:12.976Z,97.40
2023-04-01T19:56:29.162Z,97.56
2023-04-01T19:58:53.611Z,97.36
2023-04-01T20:06:05.809Z,96.39
2023-04-01T20:11:32.098Z,96.19
2023-04-01T20:13:02.374Z,96.13
2023-04-01T20:15:41.295Z,96.39
2023-04-01T20:18:20.546Z,95.82
2023-04-01T20:21:24.051Z,95.92
2023-04-01T20:24:03.703Z,95.72
2023-04-01T20:26:43.459Z,96.44
2023-04-01T20:27:51.581Z,96.03
2023-04-01T20:31:40.177Z,95.62
2023-04-01T20:34:38.662Z,95.72
2023-04-01T20:38:48.537Z,95.82
2023-04-01T20:40:03.742Z,95.92
2023-04-01T20:41:50.892Z,96.33
2023-04-01T20:42:02.689Z,96.33
2023-04-01T20:43:17.575Z,96.33
2023-04-01T20:48:44.295Z,95.51
2023-04-01T20:54:34.633Z,95.82
2023-04-01T20:57:24.162Z,95.82
2023-04-01T21:03:04.866Z,95.92
2023-04-01T21:10:54.976Z,95.87
2023-04-01T21:14:15.648Z,96.28
2023-04-01T21:18:25.454Z,96.17
2023-04-01T21:22:25.007Z,96.63
2023-04-01T21:34:46.949Z,96.32
2023-04-01T21:37:59.107Z,96.42
2023-04-01T21:43:02.946Z,96.01
2023-04-01T21:46:25.371Z,95.56
2023-04-01T21:47:38.507Z,95.81
2023-04-01T21:48:38.912Z,95.76
2023-04-01T21:51:13.428Z,95.70
2023-04-01T21:52:13.914Z,95.56
2023-04-01T21:53:23.053Z,95.20
2023-04-01T21:54:22.541Z,95.46
2023-04-01T21:57:04.252Z,95.50
2023-04-01T21:58:13.709Z,95.50
2023-04-01T22:00:59.256Z,95.40
2023-04-01T22:02:08.359Z,95.29
2023-04-01T22:04:49.183Z,95.50
2023-04-01T22:07:25.810Z,95.36
2023-04-01T22:10:12.288Z,95.36
2023-04-01T22:13:29.842Z,95.40
2023-04-01T22:15:04.948Z,95.46
2023-04-01T22:15:33.507Z,95.25
2023-04-01T22:17:05.377Z,95.36
2023-04-01T22:19:29.637Z,95.40
2023-04-01T22:20:37.531Z,95.29
2023-04-01T22:22:05.244Z,95.50
2023-04-01T22:23:05.964Z,95.50
2023-04-01T22:24:05.002Z,95.40
2023-04-01T22:24:32.954Z,95.40
2023-04-01T22:27:45.985Z,95.03
2023-04-01T22:29:04.923Z,95.34
2023-04-01T22:32:06.631Z,95.75
2023-04-01T22:34:46.028Z,95.44
2023-04-01T22:35:57.255Z,95.75
2023-04-01T22:36:56.947Z,95.59
2023-04-01T22:39:13.660Z,95.49
2023-04-01T22:42:15.592Z,96.00
2023-04-01T22:45:07.920Z,95.59
2023-04-01T22:47:23.665Z,95.79
2023-04-01T22:50:14.176Z,95.79
2023-04-01T22:52:42.287Z,95.12
2023-04-01T22:53:51.934Z,95.02